createdAt,value
2022-12-20T00:01:32.081Z,66.53
2022-12-20T00:04:03.665Z,66.57
2022-12-20T00:06:31.846Z,65.91
2022-12-20T00:09:01.826Z,66.18
2022-12-20T00:11:30.144Z,66.15
2022-12-20T00:13:58.776Z,66.47
2022-12-20T00:16:28.329Z,66.19
2022-12-20T00:18:59.030Z,65.88
2022-12-20T00:21:26.990Z,66.04
2022-12-20T00:23:57.804Z,66.30
2022-12-20T00:26:29.647Z,65.68
2022-12-20T00:28:57.490Z,65.87
2022-12-20T00:31:27.289Z,66.04
2022-12-20T00:33:57.462Z,66.16
2022-12-20T00:36:27.332Z,66.02
2022-12-20T00:38:56.676Z,65.90
2022-12-20T00:41:28.007Z,66.07
2022-12-20T00:43:55.869Z,65.80
2022-12-20T00:46:25.104Z,66.07
2022-12-20T00:48:54.670Z,66.01
2022-12-20T00:51:25.481Z,65.99
2022-12-20T00:53:53.790Z,65.83
2022-12-20T00:56:21.357Z,66.24
2022-12-20T00:58:49.821Z,66.10
2022-12-20T01:01:22.060Z,66.36
2022-12-20T01:03:52.310Z,66.33
2022-12-20T01:06:21.396Z,66.17
2022-12-20T01:08:48.929Z,66.30
2022-12-20T01:11:23.468Z,66.26
2022-12-20T01:13:54.007Z,66.27
2022-12-20T01:16:34.955Z,66.31
2022-12-20T01:19:03.254Z,66.34
2022-12-20T01:21:31.193Z,66.36
2022-12-20T01:23:58.818Z,66.23
2022-12-20T01:26:28.989Z,65.96
2022-12-20T01:28:59.223Z,66.30
2022-12-20T01:31:28.480Z,66.30
2022-12-20T01:33:56.818Z,66.08
2022-12-20T01:36:29.468Z,66.21
2022-12-20T01:39:03.413Z,66.12
2022-12-20T01:41:33.530Z,66.15
2022-12-20T01:44:04.150Z,66.25
2022-12-20T01:46:39.821Z,66.12
2022-12-20T01:49:31.048Z,66.31
2022-12-20T01:52:10.828Z,66.46
2022-12-20T01:54:46.793Z,66.17
2022-12-20T01:57:21.095Z,66.27
2022-12-20T01:59:52.050Z,65.87
2022-12-20T02:02:21.434Z,65.87
2022-12-20T02:04:49.065Z,65.92
2022-12-20T02:07:22.978Z,65.81
2022-12-20T02:09:51.578Z,65.88
2022-12-20T02:12:25.404Z,65.85
2022-12-20T02:15:10.117Z,65.71
2022-12-20T02:17:43.780Z,65.79
2022-12-20T02:20:29.737Z,65.79
2022-12-20T02:23:33.568Z,65.83
2022-12-20T02:26:39.331Z,65.72
2022-12-20T02:29:18.968Z,65.93
2022-12-20T02:31:59.125Z,65.88
2022-12-20T02:34:29.168Z,65.56
2022-12-20T02:36:56.923Z,65.55
2022-12-20T02:39:27.215Z,65.68
2022-12-20T02:42:04.721Z,65.47
2022-12-20T02:44:52.063Z,65.26
2022-12-20T02:47:31.025Z,65.20
2022-12-20T02:49:59.644Z,65.23
2022-12-20T02:52:31.249Z,65.13
2022-12-20T02:55:01.942Z,64.99
2022-12-20T02:57:35.430Z,64.95
2022-12-20T03:00:10.648Z,64.60
2022-12-20T03:02:58.200Z,64.47
2022-12-20T03:05:27.627Z,64.43
2022-12-20T03:07:55.869Z,64.42
2022-12-20T03:10:26.305Z,64.45
2022-12-20T03:12:54.038Z,64.42
2022-12-20T03:15:21.723Z,64.65
2022-12-20T03:17:52.805Z,64.10
2022-12-20T03:20:20.493Z,64.38
2022-12-20T03:22:48.235Z,64.41
2022-12-20T03:25:15.949Z,63.95
2022-12-20T03:27:43.603Z,64.16
2022-12-20T03:30:11.639Z,63.74
2022-12-20T03:32:39.105Z,63.61
2022-12-20T03:35:07.656Z,63.31
2022-12-20T03:37:38.996Z,63.38
2022-12-20T03:40:08.576Z,63.27
2022-12-20T03:42:36.250Z,63.38
2022-12-20T03:45:05.146Z,63.15
2022-12-20T03:47:33.151Z,63.07
2022-12-20T03:50:01.013Z,62.15
2022-12-20T03:52:32.708Z,62.38
2022-12-20T03:55:00.843Z,62.00
2022-12-20T03:57:37.716Z,61.59
2022-12-20T04:00:12.959Z,61.89
2022-12-20T04:02:43.325Z,61.99
2022-12-20T04:05:13.245Z,61.76
2022-12-20T04:07:41.162Z,60.93
2022-12-20T04:10:09.179Z,60.87
2022-12-20T04:12:37.415Z,61.20
2022-12-20T04:15:09.000Z,60.96
2022-12-20T04:17:38.247Z,60.89
2022-12-20T04:20:19.245Z,60.79
2022-12-20T04:22:52.544Z,60.54
2022-12-20T04:25:21.643Z,60.04
2022-12-20T04:27:49.453Z,59.74
2022-12-20T04:30:17.020Z,59.57
2022-12-20T04:32:44.651Z,59.66
2022-12-20T04:35:12.167Z,59.26
2022-12-20T04:37:42.691Z,59.15
2022-12-20T04:40:10.901Z,58.79
2022-12-20T04:42:49.826Z,58.65
2022-12-20T04:45:18.271Z,58.90
2022-12-20T04:47:46.733Z,58.80
2022-12-20T04:50:19.226Z,58.88
2022-12-20T04:53:05.770Z,58.73
2022-12-20T04:55:38.592Z,57.81
2022-12-20T04:58:08.078Z,58.16
2022-12-20T05:00:38.827Z,58.39
2022-12-20T05:03:20.000Z,57.96
2022-12-20T05:05:47.936Z,57.80
2022-12-20T05:08:15.519Z,57.40
2022-12-20T05:10:44.756Z,57.79
2022-12-20T05:13:13.720Z,57.59
2022-12-20T05:15:44.775Z,57.93
2022-12-20T05:18:13.230Z,57.62
2022-12-20T05:21:18.440Z,57.65
2022-12-20T05:24:07.277Z,57.78
2022-12-20T05:26:48.559Z,57.41
2022-12-20T05:29:18.510Z,57.22
2022-12-20T05:31:47.742Z,57.66
2022-12-20T05:34:16.620Z,57.62
2022-12-20T05:36:49.292Z,57.78
2022-12-20T05:39:17.517Z,57.71
2022-12-20T05:41:47.474Z,57.67
2022-12-20T05:44:15.403Z,57.63
2022-12-20T05:46:46.454Z,57.57
2022-12-20T05:49:19.056Z,57.28
2022-12-20T05:51:46.832Z,57.28
2022-12-20T05:54:25.681Z,57.15
2022-12-20T05:57:31.725Z,57.01
2022-12-20T05:59:59.593Z,56.84
2022-12-20T06:02:27.175Z,56.28
2022-12-20T06:05:04.749Z,56.69
2022-12-20T06:07:32.297Z,57.22
2022-12-20T06:10:01.075Z,57.05
2022-12-20T06:12:42.529Z,57.12
2022-12-20T06:15:10.987Z,57.24
2022-12-20T06:17:39.924Z,56.25
2022-12-20T06:20:08.309Z,56.20
2022-12-20T06:22:37.672Z,56.73
2022-12-20T06:25:06.158Z,56.30
2022-12-20T06:27:36.352Z,55.60
2022-12-20T06:30:33.795Z,55.87
2022-12-20T06:33:13.545Z,55.82
2022-12-20T06:35:41.090Z,56.01
2022-12-20T06:38:08.817Z,55.74
2022-12-20T06:40:36.746Z,55.71
2022-12-20T06:43:04.577Z,55.96
2022-12-20T06:45:37.593Z,54.80
2022-12-20T06:48:09.542Z,55.13
2022-12-20T06:50:40.983Z,55.17
2022-12-20T06:53:11.255Z,55.37
2022-12-20T06:55:39.568Z,55.65
2022-12-20T06:58:07.833Z,55.64
2022-12-20T07:00:37.944Z,55.68
2022-12-20T07:03:05.585Z,55.56
2022-12-20T07:05:35.540Z,55.12
2022-12-20T07:08:04.628Z,55.48
2022-12-20T07:10:34.661Z,55.00
2022-12-20T07:13:02.211Z,55.08
2022-12-20T07:15:29.743Z,55.10
2022-12-20T07:17:57.358Z,54.50
2022-12-20T07:20:24.892Z,54.71
2022-12-20T07:22:52.502Z,54.41
2022-12-20T07:25:20.112Z,54.40
2022-12-20T07:27:50.092Z,54.24
2022-12-20T07:30:19.392Z,54.34
2022-12-20T07:32:47.444Z,53.55
2022-12-20T07:35:16.093Z,52.92
2022-12-20T07:37:43.689Z,53.64
2022-12-20T07:40:12.512Z,53.17
2022-12-20T07:42:46.315Z,53.51
2022-12-20T07:45:16.496Z,52.20
2022-12-20T07:47:44.113Z,51.89
2022-12-20T07:50:12.061Z,51.49
2022-12-20T07:52:42.095Z,51.18
2022-12-20T07:55:11.191Z,50.67
2022-12-20T07:57:51.811Z,49.23
2022-12-20T08:00:19.605Z,50.32
2022-12-20T08:03:02.338Z,47.34
2022-12-20T08:05:30.230Z,48.83
2022-12-20T08:07:59.799Z,48.96
2022-12-20T08:10:28.974Z,49.31
2022-12-20T08:12:57.845Z,48.88
2022-12-20T08:15:26.803Z,49.32
2022-12-20T08:17:54.415Z,49.09
2022-12-20T08:20:22.307Z,49.68
2022-12-20T08:22:49.968Z,49.90
2022-12-20T08:25:17.525Z,49.86
2022-12-20T08:27:48.075Z,49.68
2022-12-20T08:30:15.937Z,49.55
2022-12-20T08:32:43.447Z,49.80
2022-12-20T08:35:13.280Z,50.39
2022-12-20T08:37:40.847Z,50.31
2022-12-20T08:40:09.657Z,50.79
2022-12-20T08:42:37.125Z,51.08
2022-12-20T08:45:05.410Z,51.42
2022-12-20T08:47:33.072Z,51.35
2022-12-20T08:50:01.304Z,51.55
2022-12-20T08:52:31.196Z,51.28
2022-12-20T08:55:01.431Z,51.42
2022-12-20T08:57:30.790Z,51.43
2022-12-20T08:59:58.493Z,50.65
2022-12-20T09:02:26.534Z,51.10
2022-12-20T09:04:54.393Z,51.58
2022-12-20T09:07:21.874Z,51.60
2022-12-20T09:09:49.442Z,52.23
2022-12-20T09:12:16.951Z,51.54
2022-12-20T09:14:45.299Z,51.78
2022-12-20T09:17:12.907Z,51.96
2022-12-20T09:19:40.466Z,51.75
2022-12-20T09:22:08.891Z,51.73
2022-12-20T09:24:38.108Z,52.22
2022-12-20T09:27:05.687Z,52.20
2022-12-20T09:29:35.702Z,51.95
2022-12-20T09:32:04.133Z,52.57
2022-12-20T09:34:31.695Z,52.18
2022-12-20T09:36:59.305Z,52.05
2022-12-20T09:39:26.876Z,51.58
2022-12-20T09:41:54.527Z,51.72
2022-12-20T09:44:25.043Z,52.03
2022-12-20T09:47:04.913Z,52.00
2022-12-20T09:49:40.245Z,52.18
2022-12-20T09:52:13.572Z,52.18
2022-12-20T09:55:02.957Z,51.48
2022-12-20T09:57:55.490Z,51.97
2022-12-20T10:00:23.095Z,51.31
2022-12-20T10:03:08.291Z,51.70
2022-12-20T10:05:50.264Z,51.82
2022-12-20T10:08:32.952Z,52.15
2022-12-20T10:11:13.200Z,51.92
2022-12-20T10:14:19.429Z,51.50
2022-12-20T10:16:53.945Z,51.92
2022-12-20T10:19:24.409Z,52.14
2022-12-20T10:21:58.007Z,52.22
2022-12-20T10:24:31.355Z,51.70
2022-12-20T10:27:12.088Z,51.72
2022-12-20T10:29:40.383Z,51.53
2022-12-20T10:32:23.323Z,52.28
2022-12-20T10:35:20.235Z,51.11
2022-12-20T10:38:17.762Z,51.72
2022-12-20T10:41:20.653Z,51.58
2022-12-20T10:43:54.075Z,51.04
2022-12-20T10:46:22.334Z,51.25
2022-12-20T10:48:51.000Z,51.21
2022-12-20T10:51:23.202Z,51.41
2022-12-20T10:54:02.536Z,51.18
2022-12-20T10:56:36.516Z,51.09
2022-12-20T10:59:36.976Z,51.00
2022-12-20T11:02:38.789Z,50.26
2022-12-20T11:05:10.779Z,50.17
2022-12-20T11:08:24.758Z,50.36
2022-12-20T11:10:39.273Z,50.20
2022-12-20T11:13:06.907Z,50.39
2022-12-20T11:15:36.434Z,50.45
2022-12-20T11:18:31.679Z,51.03
2022-12-20T11:21:27.909Z,51.87
2022-12-20T11:24:02.862Z,51.97
2022-12-20T11:26:42.354Z,51.98
2022-12-20T11:29:30.439Z,51.78
2022-12-20T11:32:26.817Z,51.41
2022-12-20T11:35:38.621Z,51.33
2022-12-20T11:38:15.033Z,51.85
2022-12-20T11:40:59.779Z,51.46
2022-12-20T11:44:23.121Z,51.38
2022-12-20T11:46:57.438Z,51.07
2022-12-20T11:49:31.490Z,50.99
2022-12-20T11:52:12.206Z,51.66
2022-12-20T11:54:53.759Z,51.72
2022-12-20T11:57:28.180Z,51.83
2022-12-20T12:00:00.280Z,52.13
2022-12-20T12:02:58.446Z,52.82
2022-12-20T12:05:47.370Z,53.41
2022-12-20T12:08:47.055Z,53.88
2022-12-20T12:14:38.637Z,54.30
2022-12-20T12:17:12.923Z,54.30
2022-12-20T12:19:46.800Z,54.47
2022-12-20T12:22:25.010Z,55.57
2022-12-20T12:25:00.214Z,55.04
2022-12-20T12:27:28.618Z,54.85
2022-12-20T12:29:58.912Z,55.50
2022-12-20T12:32:31.403Z,55.44
2022-12-20T12:35:24.075Z,56.13
2022-12-20T12:38:09.765Z,55.75
2022-12-20T12:41:04.287Z,56.46
2022-12-20T12:43:40.995Z,56.30
2022-12-20T12:46:16.711Z,56.40
2022-12-20T12:49:15.701Z,56.64
2022-12-20T12:51:52.268Z,56.72
2022-12-20T12:54:30.939Z,57.01
2022-12-20T12:57:06.922Z,56.51
2022-12-20T12:59:34.475Z,56.79
2022-12-20T13:02:14.288Z,56.92
2022-12-20T13:05:02.100Z,56.29
2022-12-20T13:07:33.451Z,56.25
2022-12-20T13:10:10.188Z,56.40
2022-12-20T13:12:40.990Z,56.18
2022-12-20T13:15:21.211Z,56.76
2022-12-20T13:17:59.087Z,56.26
2022-12-20T13:20:27.920Z,56.59
2022-12-20T13:23:11.686Z,56.59
2022-12-20T13:25:45.923Z,56.24
2022-12-20T13:28:19.017Z,56.56
2022-12-20T13:30:47.963Z,56.11
2022-12-20T13:33:24.411Z,56.48
2022-12-20T13:35:55.577Z,56.26
2022-12-20T13:38:48.148Z,56.45
2022-12-20T13:41:34.845Z,56.10
2022-12-20T13:44:14.983Z,55.89
2022-12-20T13:46:47.245Z,55.90
2022-12-20T13:49:43.895Z,56.13
2022-12-20T13:52:11.427Z,56.17
2022-12-20T13:54:49.054Z,56.21
2022-12-20T13:57:17.567Z,55.69
2022-12-20T13:59:49.935Z,55.84
2022-12-20T14:02:25.265Z,56.48
2022-12-20T14:05:02.104Z,56.72
2022-12-20T14:07:32.979Z,56.76
2022-12-20T14:10:17.965Z,56.43
2022-12-20T14:12:46.471Z,56.58
2022-12-20T14:15:28.423Z,56.78
2022-12-20T14:17:56.804Z,56.66
2022-12-20T14:20:26.759Z,56.72
2022-12-20T14:23:18.689Z,57.10
2022-12-20T14:26:01.829Z,57.01
2022-12-20T14:28:35.756Z,57.07
2022-12-20T14:31:04.436Z,56.80
2022-12-20T14:33:36.647Z,57.56
2022-12-20T14:36:31.827Z,57.49
2022-12-20T14:38:59.536Z,57.48
2022-12-20T14:41:36.425Z,57.78
2022-12-20T14:44:25.086Z,58.04
2022-12-20T14:46:54.412Z,57.62
2022-12-20T14:49:24.295Z,57.92
2022-12-20T14:51:52.870Z,58.46
2022-12-20T14:57:24.759Z,58.56
2022-12-20T15:00:14.928Z,58.46
2022-12-20T15:02:50.812Z,58.75
2022-12-20T15:05:37.753Z,58.42
2022-12-20T15:08:27.480Z,58.57
2022-12-20T15:11:10.722Z,58.73
2022-12-20T15:13:55.721Z,58.38
2022-12-20T15:16:28.106Z,58.61
2022-12-20T15:18:58.558Z,58.26
2022-12-20T15:21:40.572Z,58.89
2022-12-20T15:24:14.337Z,59.14
2022-12-20T15:26:41.956Z,58.47
2022-12-20T15:29:24.145Z,58.95
2022-12-20T15:32:15.476Z,58.88
2022-12-20T15:34:43.191Z,59.36
2022-12-20T15:37:18.287Z,59.71
2022-12-20T15:39:46.572Z,59.05
2022-12-20T15:42:18.235Z,59.61
2022-12-20T15:44:46.421Z,59.05
2022-12-20T15:47:17.089Z,59.38
2022-12-20T15:49:49.891Z,59.73
2022-12-20T15:52:25.845Z,59.39
2022-12-20T15:54:53.311Z,59.43
2022-12-20T15:57:21.037Z,60.02
2022-12-20T16:00:00.295Z,59.55
2022-12-20T16:02:32.893Z,59.71
2022-12-20T16:05:01.728Z,59.95
2022-12-20T16:07:30.753Z,60.30
2022-12-20T16:09:58.332Z,60.12
2022-12-20T16:12:29.029Z,60.37
2022-12-20T16:14:57.097Z,60.36
2022-12-20T16:17:24.818Z,60.09
2022-12-20T16:19:52.537Z,60.16
2022-12-20T16:22:22.460Z,60.42
2022-12-20T16:24:50.694Z,60.29
2022-12-20T16:27:18.246Z,60.23
2022-12-20T16:29:45.883Z,59.98
2022-12-20T16:32:15.706Z,60.17
2022-12-20T16:34:44.403Z,59.82
2022-12-20T16:37:12.194Z,60.12
2022-12-20T16:39:40.103Z,59.56
2022-12-20T16:42:17.174Z,60.09
2022-12-20T16:44:46.019Z,59.91
2022-12-20T16:47:14.948Z,59.86
2022-12-20T16:49:51.736Z,60.20
2022-12-20T16:52:22.119Z,60.17
2022-12-20T16:54:50.559Z,59.81
2022-12-20T16:57:18.206Z,59.65
2022-12-20T16:59:45.801Z,60.13
2022-12-20T17:02:32.805Z,60.00
2022-12-20T17:05:00.906Z,60.15
2022-12-20T17:07:30.543Z,60.10
2022-12-20T17:09:59.190Z,60.01
2022-12-20T17:12:26.868Z,60.03
2022-12-20T17:14:54.406Z,60.36
2022-12-20T17:17:22.053Z,60.18
2022-12-20T17:19:49.575Z,60.43
2022-12-20T17:22:24.738Z,60.25
2022-12-20T17:24:54.601Z,60.25
2022-12-20T17:27:22.218Z,60.48
2022-12-20T17:29:50.895Z,60.80
2022-12-20T17:32:21.966Z,60.60
2022-12-20T17:34:50.251Z,60.74
2022-12-20T17:37:18.111Z,60.38
2022-12-20T17:39:45.845Z,60.56
2022-12-20T17:42:14.092Z,60.67
2022-12-20T17:44:41.692Z,60.43
2022-12-20T17:47:11.831Z,60.89
2022-12-20T17:49:39.535Z,61.12
2022-12-20T17:52:15.695Z,60.97
2022-12-20T17:54:43.552Z,60.60
2022-12-20T17:57:16.410Z,60.33
2022-12-20T17:59:44.509Z,60.40
2022-12-20T18:02:19.999Z,61.04
2022-12-20T18:04:47.908Z,60.93
2022-12-20T18:07:15.401Z,61.01
2022-12-20T18:09:42.950Z,60.94
2022-12-20T18:12:11.024Z,60.52
2022-12-20T18:14:38.589Z,60.98
2022-12-20T18:17:06.110Z,60.76
2022-12-20T18:19:33.722Z,61.21
2022-12-20T18:22:01.585Z,61.08
2022-12-20T18:24:29.234Z,60.81
2022-12-20T18:26:56.760Z,60.93
2022-12-20T18:29:24.260Z,61.16
2022-12-20T18:31:51.839Z,61.15
2022-12-20T18:34:19.602Z,61.08
2022-12-20T18:36:47.050Z,61.26
2022-12-20T18:39:14.767Z,61.60
2022-12-20T18:41:44.312Z,61.59
2022-12-20T18:44:12.145Z,61.50
2022-12-20T18:46:40.949Z,61.54
2022-12-20T18:49:09.868Z,61.75
2022-12-20T18:51:37.384Z,61.86
2022-12-20T18:54:07.256Z,61.81
2022-12-20T18:56:37.596Z,62.24
2022-12-20T18:59:11.262Z,62.36
2022-12-20T19:01:41.821Z,62.09
2022-12-20T19:04:10.505Z,62.53
2022-12-20T19:06:38.799Z,62.49
2022-12-20T19:09:10.370Z,62.28
2022-12-20T19:11:38.117Z,62.15
2022-12-20T19:14:06.218Z,62.51
2022-12-20T19:16:34.520Z,62.42
2022-12-20T19:19:03.257Z,62.35
2022-12-20T19:21:42.017Z,63.21
2022-12-20T19:24:11.374Z,62.90
2022-12-20T19:26:39.840Z,63.17
2022-12-20T19:29:11.689Z,62.71
2022-12-20T19:31:39.243Z,63.27
2022-12-20T19:34:09.162Z,62.84
2022-12-20T19:36:42.008Z,63.57
2022-12-20T19:39:28.973Z,63.49
2022-12-20T19:42:23.147Z,63.15
2022-12-20T19:44:45.092Z,62.97
2022-12-20T19:47:13.338Z,62.92
2022-12-20T19:49:40.954Z,62.98
2022-12-20T19:52:08.511Z,62.57
2022-12-20T19:54:36.032Z,62.89
2022-12-20T19:57:03.675Z,62.93
2022-12-20T19:59:31.575Z,62.71
2022-12-20T20:01:59.322Z,63.02
2022-12-20T20:04:27.548Z,63.12
2022-12-20T20:06:56.489Z,63.17
2022-12-20T20:09:24.098Z,62.42
2022-12-20T20:11:51.849Z,62.95
2022-12-20T20:14:19.417Z,62.95
2022-12-20T20:16:46.958Z,62.42
2022-12-20T20:19:14.770Z,62.72
2022-12-20T20:21:42.397Z,62.46
2022-12-20T20:24:10.242Z,62.24
2022-12-20T20:26:38.105Z,62.66
2022-12-20T20:29:07.337Z,62.43
2022-12-20T20:31:34.953Z,62.14
2022-12-20T20:34:03.129Z,62.08
2022-12-20T20:36:30.719Z,62.34
2022-12-20T20:38:58.722Z,62.16
2022-12-20T20:41:26.335Z,62.57
2022-12-20T20:43:53.828Z,62.26
2022-12-20T20:46:21.706Z,62.13
2022-12-20T20:48:49.204Z,62.06
2022-12-20T20:51:16.893Z,62.13
2022-12-20T20:53:44.422Z,62.05
2022-12-20T20:56:12.130Z,61.94
2022-12-20T20:58:39.834Z,61.87
2022-12-20T21:01:08.883Z,62.11
2022-12-20T21:03:37.395Z,62.00
2022-12-20T21:06:38.647Z,62.05
2022-12-20T21:08:55.756Z,61.55
2022-12-20T21:11:23.580Z,61.71
2022-12-20T21:13:51.167Z,61.90
2022-12-20T21:16:22.623Z,61.81
2022-12-20T21:18:55.187Z,61.51
2022-12-20T21:21:24.626Z,61.66
2022-12-20T21:23:53.233Z,61.74
2022-12-20T21:26:22.276Z,61.72
2022-12-20T21:28:49.879Z,61.93
2022-12-20T21:31:19.569Z,61.78
2022-12-20T21:33:47.390Z,61.56
2022-12-20T21:36:17.268Z,61.76
2022-12-20T21:38:56.229Z,61.23
2022-12-20T21:41:26.199Z,61.72
2022-12-20T21:43:58.335Z,61.59
2022-12-20T21:46:27.863Z,61.70
2022-12-20T21:48:55.741Z,61.74
2022-12-20T21:51:25.652Z,61.64
2022-12-20T21:53:58.343Z,62.20
2022-12-20T21:56:28.085Z,61.90
2022-12-20T21:58:55.732Z,62.22
2022-12-20T22:01:26.484Z,62.11
2022-12-20T22:04:06.687Z,62.26
2022-12-20T22:06:34.899Z,61.88
2022-12-20T22:09:07.474Z,62.05
2022-12-20T22:11:35.324Z,61.76
2022-12-20T22:14:02.870Z,61.92
2022-12-20T22:16:32.446Z,62.16
2022-12-20T22:19:00.797Z,62.11
2022-12-20T22:21:31.562Z,61.91
2022-12-20T22:24:00.577Z,61.99
2022-12-20T22:26:30.553Z,62.23
2022-12-20T22:29:01.244Z,61.85
2022-12-20T22:31:29.342Z,61.63
2022-12-20T22:33:57.972Z,61.84
2022-12-20T22:36:25.933Z,61.69
2022-12-20T22:38:55.445Z,61.78
2022-12-20T22:41:26.585Z,61.38
2022-12-20T22:43:54.512Z,61.40
2022-12-20T22:46:22.183Z,60.97
2022-12-20T22:48:49.744Z,60.94
2022-12-20T22:51:20.446Z,60.75
2022-12-20T22:53:49.471Z,61.14
2022-12-20T22:56:19.602Z,60.87
2022-12-20T22:58:48.132Z,60.89
2022-12-20T23:01:17.627Z,60.85
2022-12-20T23:03:46.029Z,60.64
2022-12-20T23:06:15.969Z,60.87
2022-12-20T23:08:44.230Z,60.34
2022-12-20T23:11:35.338Z,60.45
2022-12-20T23:14:22.647Z,60.27
2022-12-20T23:16:50.766Z,60.14
2022-12-20T23:19:18.364Z,60.32
2022-12-20T23:22:04.604Z,60.43
2022-12-20T23:24:32.125Z,60.42
2022-12-20T23:26:59.788Z,60.50
2022-12-20T23:29:27.430Z,60.83
2022-12-20T23:31:54.950Z,60.55
2022-12-20T23:34:23.348Z,60.64
2022-12-20T23:36:51.785Z,60.36
2022-12-20T23:39:19.231Z,60.54
2022-12-20T23:41:46.769Z,60.39
2022-12-20T23:44:14.269Z,60.51
2022-12-20T23:46:41.812Z,60.46
2022-12-20T23:49:09.313Z,60.53
2022-12-20T23:51:36.821Z,60.90
2022-12-20T23:54:04.579Z,60.59
2022-12-20T23:56:32.084Z,60.97
2022-12-20T23:58:59.621Z,60.90
